Time;durP1;ratioP1;P1;durP2;ratioP2;P2;SDS_P1;SDS_P2;PMS_P1;PMS_P2;Temp;Humidity;BMP_temperature;BMP_pressure;BME280_temperature;BME280_humidity;BME280_pressure;Samples;Min_cycle;Max_cycle;Signal;HPM_P1;HPM_P2
2023/10/16 00:04:18;670083.00;2.23;1155.40;25629.00;0.09;45.02;;;;;13.30;1.00;;;;;;2269421;61;1458;-88
2023/10/16 00:06:50;90289.00;0.30;156.81;18279.00;0.06;32.29;;;;;13.80;1.00;;;;;;2267730;61;1675;-89
2023/10/16 00:12:19;826339.00;2.75;1427.10;0.00;0.00;0.62;;;;;14.10;1.00;;;;;;2269235;61;1346;-89
2023/10/16 00:14:55;304256.00;1.01;525.24;91470.00;0.30;158.85;;;;;13.90;1.00;;;;;;2267899;61;1281;-89
2023/10/16 00:17:22;572435.00;1.91;986.65;89701.00;0.30;155.79;;;;;13.60;1.00;;;;;;2267692;61;1477;-88
2023/10/16 00:19:54;446236.00;1.49;769.31;77599.00;0.26;134.89;;;;;13.80;1.00;;;;;;2267542;61;1993;-87
2023/10/16 00:22:27;368389.00;1.23;635.47;89479.00;0.30;155.41;;;;;13.80;1.00;;;;;;2267568;61;1568;-89
2023/10/16 00:24:58;374865.00;1.25;646.60;83261.00;0.28;144.67;;;;;14.10;1.00;;;;;;2267778;61;1576;-89
2023/10/16 00:27:26;209925.00;0.70;363.01;82896.00;0.28;144.04;;;;;14.00;1.00;;;;;;2267776;61;1601;-89
2023/10/16 00:29:55;382265.00;1.27;659.32;83020.00;0.28;144.25;;;;;14.40;1.00;;;;;;2267737;61;1013;-89
2023/10/16 00:32:30;438769.00;1.46;756.47;67911.00;0.23;118.15;;;;;14.60;1.00;;;;;;2267577;61;1620;-90
2023/10/16 00:35:00;641608.00;2.14;1106.12;78060.00;0.26;135.69;;;;;14.80;1.00;;;;;;2267766;61;1603;-89
2023/10/16 00:37:28;560333.00;1.87;965.77;79650.00;0.27;138.43;;;;;14.70;1.00;;;;;;2267649;61;1562;-88
2023/10/16 00:39:58;564989.00;1.88;973.80;80248.00;0.27;139.47;;;;;15.00;1.00;;;;;;2267624;61;1931;-89
2023/10/16 00:42:33;654275.00;2.18;1128.03;123066.00;0.41;213.37;;;;;14.90;1.00;;;;;;2267699;61;1356;-88
2023/10/16 00:45:03;547932.00;1.83;944.39;81470.00;0.27;141.58;;;;;14.80;1.00;;;;;;2267667;61;1839;-88
2023/10/16 00:47:32;454202.00;1.51;783.01;87122.00;0.29;151.34;;;;;14.80;1.00;;;;;;2267781;61;1592;-89
2023/10/16 00:50:09;382995.00;1.28;660.57;59157.00;0.20;103.02;;;;;15.10;1.00;;;;;;2267670;61;1587;-89
2023/10/16 00:52:46;540441.00;1.80;931.48;0.00;0.00;0.62;;;;;14.60;1.00;;;;;;2267512;61;1655;-87
2023/10/16 00:55:19;378388.00;1.26;652.65;0.00;0.00;0.62;;;;;14.70;1.00;;;;;;2267262;61;1635;-88
2023/10/16 00:57:58;65895.00;0.22;114.67;0.00;0.00;0.62;;;;;15.00;1.00;;;;;;2267487;61;1553;-88
2023/10/16 01:00:35;171837.00;0.57;297.43;0.00;0.00;0.62;;;;;15.10;1.00;;;;;;2268186;61;1005;-88
2023/10/16 01:03:05;49381.00;0.16;86.12;0.00;0.00;0.62;;;;;15.20;1.00;;;;;;2268108;61;1539;-88
2023/10/16 01:05:39;119140.00;0.40;206.60;0.00;0.00;0.62;;;;;15.20;1.00;;;;;;2268137;61;1592;-89
2023/10/16 01:08:10;35508.00;0.12;62.12;0.00;0.00;0.62;;;;;15.40;1.00;;;;;;2268338;61;1167;-90
2023/10/16 01:10:41;113583.00;0.38;197.01;0.00;0.00;0.62;;;;;15.00;1.00;;;;;;2268132;61;1545;-89
2023/10/16 01:13:16;285887.00;0.95;493.66;0.00;0.00;0.62;;;;;14.50;1.00;;;;;;2268254;61;1466;-88
2023/10/16 01:15:49;269774.00;0.90;465.96;0.00;0.00;0.62;;;;;13.70;1.00;;;;;;2268106;61;1623;-88
2023/10/16 01:18:23;269919.00;0.90;466.20;42411.00;0.14;74.06;;;;;13.60;1.00;;;;;;2268263;61;2006;-89
2023/10/16 01:20:55;108750.00;0.36;188.67;0.00;0.00;0.62;;;;;13.10;1.00;;;;;;2268347;61;1634;-88
2023/10/16 01:23:31;240964.00;0.80;416.41;0.00;0.00;0.62;;;;;13.20;1.00;;;;;;2266541;61;1446;-89
2023/10/16 01:26:05;196225.00;0.65;339.43;0.00;0.00;0.62;;;;;13.90;1.00;;;;;;2264319;61;1575;-89
2023/10/16 01:28:32;235952.00;0.79;407.79;59873.00;0.20;104.26;;;;;14.30;1.00;;;;;;2264204;61;1087;-89
2023/10/16 01:31:05;142380.00;0.47;246.67;0.00;0.00;0.62;;;;;14.70;1.00;;;;;;2264145;61;1561;-87
2023/10/16 01:33:39;71009.00;0.24;123.50;0.00;0.00;0.62;;;;;14.60;1.00;;;;;;2264130;61;1598;-87
2023/10/16 01:36:07;96528.00;0.32;167.58;0.00;0.00;0.62;;;;;14.30;1.00;;;;;;2262744;61;1137;-89
2023/10/16 01:38:38;371717.00;1.24;641.19;43218.00;0.14;75.46;;;;;14.30;1.00;;;;;;2264008;61;2286;-88
2023/10/16 01:41:08;194747.00;0.65;336.88;0.00;0.00;0.62;;;;;14.20;1.00;;;;;;2264113;61;1562;-87
2023/10/16 01:43:44;35933.00;0.12;62.85;0.00;0.00;0.62;;;;;14.10;1.00;;;;;;2264106;61;1608;-89
2023/10/16 01:46:16;109415.00;0.36;189.82;0.00;0.00;0.62;;;;;14.40;1.00;;;;;;2264130;61;1557;-87
2023/10/16 01:48:50;212796.00;0.71;367.95;0.00;0.00;0.62;;;;;14.20;1.00;;;;;;2264189;61;943;-87
2023/10/16 01:51:19;102825.00;0.34;178.45;0.00;0.00;0.62;;;;;13.80;1.00;;;;;;2264101;61;1490;-88
2023/10/16 01:53:50;242861.00;0.81;419.67;0.00;0.00;0.62;;;;;13.80;1.00;;;;;;2264319;61;1603;-88
2023/10/16 01:56:29;62297.00;0.21;108.45;0.00;0.00;0.62;;;;;14.10;1.00;;;;;;2268090;61;1280;-89
2023/10/16 01:59:01;143242.00;0.48;248.16;72982.00;0.24;126.91;;;;;13.90;1.00;;;;;;2268161;61;1916;-88
2023/10/16 02:01:28;112755.00;0.38;195.58;0.00;0.00;0.62;;;;;13.30;1.00;;;;;;2268072;61;1637;-88
2023/10/16 02:04:06;173068.00;0.58;299.55;0.00;0.00;0.62;;;;;13.10;1.00;;;;;;2268048;61;1690;-88
2023/10/16 02:06:38;358900.00;1.20;619.16;89467.00;0.30;155.39;;;;;13.60;1.00;;;;;;2268035;61;1494;-88
2023/10/16 02:09:13;353916.00;1.18;610.59;84875.00;0.28;147.46;;;;;13.20;1.00;;;;;;2268082;61;1019;-88
2023/10/16 02:11:45;467016.00;1.56;805.06;69248.00;0.23;120.46;;;;;12.70;1.00;;;;;;2267438;61;1604;-88
2023/10/16 02:14:14;513447.00;1.71;884.98;88208.00;0.29;153.21;;;;;12.80;1.00;;;;;;2268065;61;1526;-88
2023/10/16 02:16:42;618963.00;2.06;1066.97;70544.00;0.24;122.70;;;;;12.90;1.00;;;;;;2268003;61;1062;-87
2023/10/16 02:19:11;580940.00;1.94;1001.32;115785.00;0.39;200.81;;;;;13.10;1.00;;;;;;2268019;61;1993;-89
2023/10/16 02:21:40;676346.00;2.25;1166.24;80897.00;0.27;140.59;;;;;13.60;1.00;;;;;;2268011;61;1281;-88
2023/10/16 02:24:13;517934.00;1.73;892.71;61487.00;0.20;107.05;;;;;13.80;1.00;;;;;;2268068;61;1272;-87
2023/10/16 02:26:55;606033.00;2.02;1044.64;68168.00;0.23;118.59;;;;;12.80;1.00;;;;;;2268128;61;947;-90
2023/10/16 02:29:33;340365.00;1.13;587.30;0.00;0.00;0.62;;;;;12.60;1.00;;;;;;2268015;61;1575;-89
2023/10/16 02:32:03;297676.00;0.99;513.92;30199.00;0.10;52.93;;;;;12.80;1.00;;;;;;2267898;61;1458;-88
2023/10/16 02:34:41;353409.00;1.18;609.72;0.00;0.00;0.62;;;;;12.70;1.00;;;;;;2267950;61;1577;-87
2023/10/16 02:37:11;40523.00;0.14;70.79;0.00;0.00;0.62;;;;;13.00;1.00;;;;;;2266485;61;1427;-88
2023/10/16 02:39:41;482478.00;1.61;831.66;54609.00;0.18;95.16;;;;;13.20;1.00;;;;;;2267512;61;1998;-88
2023/10/16 02:42:11;2339.00;0.01;4.67;0.00;0.00;0.62;;;;;13.20;1.00;;;;;;2268000;61;1328;-89
2023/10/16 02:44:42;59336.00;0.20;103.33;0.00;0.00;0.62;;;;;12.80;1.00;;;;;;2267959;61;1045;-87
2023/10/16 02:47:13;307245.00;1.02;530.37;0.00;0.00;0.62;;;;;13.20;1.00;;;;;;2266504;61;1087;-87
2023/10/16 02:49:48;125516.00;0.42;217.60;0.00;0.00;0.62;;;;;13.80;1.00;;;;;;2267983;61;1431;-87
2023/10/16 02:52:19;204687.00;0.68;353.99;65473.00;0.22;113.94;;;;;14.10;1.00;;;;;;2267722;61;1444;-88
2023/10/16 02:54:48;10065.00;0.03;18.06;0.00;0.00;0.62;;;;;14.30;1.00;;;;;;2267983;61;954;-88
2023/10/16 02:57:21;222944.00;0.74;385.41;29695.00;0.10;52.06;;;;;13.50;1.00;;;;;;2267744;61;1676;-89
2023/10/16 02:59:49;233822.00;0.78;404.12;0.00;0.00;0.62;;;;;13.20;1.00;;;;;;2267891;61;1920;-90
2023/10/16 03:02:22;92678.00;0.31;160.93;0.00;0.00;0.62;;;;;12.90;1.00;;;;;;2267982;61;1612;-87
2023/10/16 03:04:52;39553.00;0.13;69.12;0.00;0.00;0.62;;;;;12.70;1.00;;;;;;2267844;61;1121;-88
2023/10/16 03:07:20;236340.00;0.79;408.46;0.00;0.00;0.62;;;;;12.50;1.00;;;;;;2268262;61;1072;-88
2023/10/16 03:09:51;88164.00;0.29;153.14;0.00;0.00;0.62;;;;;12.10;1.00;;;;;;2268189;61;1091;-88
2023/10/16 03:12:19;60821.00;0.20;105.90;0.00;0.00;0.62;;;;;12.40;1.00;;;;;;2268091;61;1238;-88
2023/10/16 03:14:54;100778.00;0.34;174.91;0.00;0.00;0.62;;;;;12.80;1.00;;;;;;2268103;61;1183;-87
2023/10/16 03:17:25;46775.00;0.16;81.61;0.00;0.00;0.62;;;;;12.60;1.00;;;;;;2268168;61;1646;-88
2023/10/16 03:20:01;61302.00;0.20;106.73;0.00;0.00;0.62;;;;;12.00;1.00;;;;;;2268106;61;1922;-89
2023/10/16 03:22:34;70709.00;0.24;122.99;0.00;0.00;0.62;;;;;12.00;1.00;;;;;;2267928;61;1561;-88
2023/10/16 03:25:24;272007.00;0.91;469.79;56749.00;0.19;98.86;;;;;11.90;1.00;;;;;;2268087;61;1439;-88
2023/10/16 03:27:55;3188.00;0.01;6.15;0.00;0.00;0.62;;;;;11.80;1.00;;;;;;2268077;61;1566;-87
2023/10/16 03:30:25;112441.00;0.37;195.04;0.00;0.00;0.62;;;;;12.10;1.00;;;;;;2268091;61;1594;-87
2023/10/16 03:33:00;43260.00;0.14;75.53;0.00;0.00;0.62;;;;;12.00;1.00;;;;;;2268135;61;1428;-89
2023/10/16 03:35:29;125614.00;0.42;217.77;0.00;0.00;0.62;;;;;12.10;1.00;;;;;;2268122;61;1623;-89
2023/10/16 03:37:58;125005.00;0.42;216.72;0.00;0.00;0.62;;;;;11.90;1.00;;;;;;2268021;61;1604;-89
2023/10/16 03:40:30;163321.00;0.54;282.76;0.00;0.00;0.62;;;;;12.60;1.00;;;;;;2267976;61;1998;-88
2023/10/16 03:43:02;152361.00;0.51;263.88;0.00;0.00;0.62;;;;;12.90;1.00;;;;;;2267745;61;1441;-88
2023/10/16 03:45:29;173591.00;0.58;300.45;0.00;0.00;0.62;;;;;13.10;1.00;;;;;;2267977;61;1486;-88
2023/10/16 03:47:57;181828.00;0.61;314.64;0.00;0.00;0.62;;;;;12.70;1.00;;;;;;2268103;61;1109;-89
2023/10/16 03:50:34;201943.00;0.67;349.27;0.00;0.00;0.62;;;;;13.10;1.00;;;;;;2268110;61;940;-88
2023/10/16 03:53:07;79918.00;0.27;138.90;0.00;0.00;0.62;;;;;13.50;1.00;;;;;;2267828;61;1669;-88
2023/10/16 03:55:43;4533.00;0.02;8.48;0.00;0.00;0.62;;;;;13.80;1.00;;;;;;2268117;61;914;-89
2023/10/16 03:58:13;120136.00;0.40;208.32;0.00;0.00;0.62;;;;;13.70;1.00;;;;;;2268062;61;1082;-89
2023/10/16 04:00:50;138952.00;0.46;240.76;0.00;0.00;0.62;;;;;13.20;1.00;;;;;;2267990;61;1992;-88
2023/10/16 04:03:18;127150.00;0.42;220.41;0.00;0.00;0.62;;;;;12.80;1.00;;;;;;2266457;61;1429;-86
2023/10/16 04:05:48;120033.00;0.40;208.14;0.00;0.00;0.62;;;;;12.60;1.00;;;;;;2268014;61;951;-88
2023/10/16 04:08:21;210561.00;0.70;364.10;0.00;0.00;0.62;;;;;12.80;1.00;;;;;;2268059;61;951;-88
2023/10/16 04:10:53;107662.00;0.36;186.80;0.00;0.00;0.62;;;;;12.50;1.00;;;;;;2267974;61;1632;-87
2023/10/16 04:13:25;0.00;0.00;0.62;0.00;0.00;0.62;;;;;12.00;1.00;;;;;;2268028;61;1723;-89
2023/10/16 04:16:13;78944.00;0.26;137.21;0.00;0.00;0.62;;;;;12.30;1.00;;;;;;2268014;61;1467;-89
2023/10/16 04:18:41;114502.00;0.38;198.60;0.00;0.00;0.62;;;;;12.80;1.00;;;;;;2268028;61;1539;-87
2023/10/16 04:23:55;78296.00;0.26;136.09;0.00;0.00;0.62;;;;;13.10;1.00;;;;;;2266305;61;1442;-88
2023/10/16 04:26:34;228617.00;0.76;395.17;0.00;0.00;0.62;;;;;13.40;1.00;;;;;;2267917;61;1613;-87
2023/10/16 04:31:57;1871676.00;6.24;3364.08;76023.00;0.25;132.17;;;;;13.40;1.00;;;;;;2266462;61;1435;-89
2023/10/16 04:34:31;163597.00;0.55;283.24;81541.00;0.27;141.70;;;;;13.60;1.00;;;;;;2268285;61;1138;-89
2023/10/16 04:45:26;265932.00;0.89;459.35;81260.00;0.27;141.21;;;;;12.70;1.00;;;;;;2266473;61;1467;-88
2023/10/16 04:48:06;254682.00;0.85;440.00;89802.00;0.30;155.97;;;;;12.90;1.00;;;;;;2268620;61;1515;-86
2023/10/16 04:50:40;380935.00;1.27;657.03;75986.00;0.25;132.10;;;;;12.70;1.00;;;;;;2268637;61;1018;-87
2023/10/16 04:53:12;268353.00;0.89;463.51;85321.00;0.28;148.23;;;;;12.90;1.00;;;;;;2268511;61;1415;-88
2023/10/16 04:55:53;323981.00;1.08;559.14;79706.00;0.27;138.53;;;;;13.30;1.00;;;;;;2268679;61;1157;-88
2023/10/16 04:58:47;566813.00;1.89;976.95;81277.00;0.27;141.24;;;;;13.30;1.00;;;;;;2268585;61;1622;-90
2023/10/16 05:06:52;466022.00;1.55;803.35;88201.00;0.29;153.20;;;;;12.40;1.00;;;;;;2268739;61;681;-87
2023/10/16 06:15:07;275463.00;0.92;475.74;76943.00;0.26;133.76;;;;;11.50;1.00;;;;;;2264575;61;686;-88
2023/10/16 06:17:37;72230.00;0.24;125.61;0.00;0.00;0.62;;;;;11.40;1.00;;;;;;2264470;61;1081;-86
2023/10/16 06:20:11;82076.00;0.27;142.62;0.00;0.00;0.62;;;;;10.90;1.00;;;;;;2264304;61;1908;-87
2023/10/16 06:22:38;124490656.00;414.97;78164424.00;124246560.00;414.16;77705128.00;;;;;11.00;1.00;;;;;;2264366;61;1755;-87
2023/10/16 06:25:10;417019.00;1.39;719.06;74088.00;0.25;128.82;;;;;10.80;1.00;;;;;;2264428;61;1653;-90
2023/10/16 06:27:41;215118.00;0.72;371.94;86840.00;0.29;150.85;;;;;10.60;1.00;;;;;;2264364;61;1723;-88
2023/10/16 06:30:09;301064.00;1.00;519.75;87162.00;0.29;151.41;;;;;10.10;1.00;;;;;;2264323;61;1546;-88
2023/10/16 06:32:37;463721.00;1.55;799.39;86303.00;0.29;149.92;;;;;9.80;1.00;;;;;;2264312;61;1462;-87
2023/10/16 06:35:09;414167.00;1.38;714.16;92928.00;0.31;161.36;;;;;10.00;1.00;;;;;;2264300;61;1417;-88
2023/10/16 06:37:49;385892.00;1.29;665.55;86168.00;0.29;149.69;;;;;10.00;1.00;;;;;;2264366;61;1240;-88
2023/10/16 06:40:17;677100.00;2.26;1167.55;96490.00;0.32;167.51;;;;;10.10;1.00;;;;;;2264351;61;1994;-89
2023/10/16 06:42:47;643791.00;2.15;1109.90;81832.00;0.27;142.20;;;;;10.50;1.00;;;;;;2264212;61;1533;-87
2023/10/16 06:45:22;120647104.00;402.16;71139600.00;82266.00;0.27;142.95;;;;;10.60;1.00;;;;;;2264347;61;1579;-88
2023/10/16 06:47:58;609882.00;2.03;1051.29;94569.00;0.32;164.20;;;;;10.80;1.00;;;;;;2264322;61;1576;-85
2023/10/16 06:50:42;610972.00;2.04;1053.17;88527.00;0.30;153.76;;;;;10.80;1.00;;;;;;2264207;61;1588;-87
2023/10/16 06:53:09;456989.00;1.52;787.80;0.00;0.00;0.62;;;;;10.60;1.00;;;;;;2264011;61;1575;-85
2023/10/16 06:55:38;677166.00;2.26;1167.66;0.00;0.00;0.62;;;;;10.50;1.00;;;;;;2264073;61;1643;-87
2023/10/16 06:58:08;451831.00;1.51;778.93;0.00;0.00;0.62;;;;;10.70;1.00;;;;;;2263951;61;1698;-87
2023/10/16 07:00:38;465098.00;1.55;801.76;0.00;0.00;0.62;;;;;10.60;1.00;;;;;;2263985;61;2001;-87
2023/10/16 07:49:43;414091.00;1.38;714.03;0.00;0.00;0.62;;;;;11.10;1.00;;;;;;631301;40;3232;-86
2023/10/16 07:54:57;1168496.00;3.89;2033.36;93569.00;0.31;162.47;;;;;11.70;1.00;;;;;;2338477;40;3404;-86
2023/10/16 08:12:55;1609738.00;5.37;2851.36;85837.00;0.29;149.12;;;;;12.50;1.00;;;;;;2306089;40;3615;-89
2023/10/16 08:15:30;417294.00;1.39;719.54;83696.00;0.28;145.42;;;;;13.20;1.00;;;;;;2320162;40;3573;-86
2023/10/16 08:28:22;686306.00;2.29;1183.50;85131.00;0.28;147.90;;;;;12.60;1.00;;;;;;2269276;61;1389;-86
2023/10/16 08:36:05;1811445.00;6.04;3244.07;50710.00;0.17;88.41;;;;;12.10;1.00;;;;;;2277337;55;3706;31
2023/10/16 08:38:40;1539544.00;5.13;2717.75;40603.00;0.14;70.93;;;;;12.10;1.00;;;;;;2269622;61;1615;-88
2023/10/16 08:44:03;1083550.00;3.61;1881.03;0.00;0.00;0.62;;;;;11.70;1.00;;;;;;1987776;60;2073;-86
2023/10/16 08:46:44;360295.00;1.20;621.56;15650.00;0.05;27.74;;;;;12.20;1.00;;;;;;2268031;61;1530;-88
2023/10/16 08:49:16;110390.00;0.37;191.50;0.00;0.00;0.62;;;;;12.40;1.00;;;;;;2267976;61;1123;-88
2023/10/16 08:51:44;96288.00;0.32;167.16;0.00;0.00;0.62;;;;;12.40;1.00;;;;;;2276315;40;3577;-85
2023/10/16 08:54:53;276666.00;0.92;477.81;12586.00;0.04;22.43;;;;;12.00;1.00;;;;;;2267505;61;1593;-85
2023/10/16 08:57:30;34286.00;0.11;60.00;0.00;0.00;0.62;;;;;11.80;1.00;;;;;;2276224;40;3579;-84
2023/10/16 09:00:19;157295.00;0.52;272.38;0.00;0.00;0.62;;;;;11.80;1.00;;;;;;2271557;61;1918;-85
2023/10/16 09:05:26;168120.00;0.56;291.03;0.00;0.00;0.62;;;;;12.90;1.00;;;;;;1725666;40;3196;-86
2023/10/16 09:10:40;858044.00;2.86;1482.55;44965.00;0.15;78.48;;;;;13.20;1.00;;;;;;2269824;61;1183;-86
2023/10/16 09:13:41;175926.00;0.59;304.47;0.00;0.00;0.62;;;;;12.50;1.00;;;;;;2267942;61;1617;-87
2023/10/16 09:16:35;604810.00;2.02;1042.53;82306.00;0.27;143.02;;;;;12.30;1.00;;;;;;2475157;40;3568;-87
2023/10/16 09:40:18;1032824.00;3.44;1790.69;0.00;0.00;0.62;;;;;12.40;1.00;;;;;;2270579;61;1310;-86
2023/10/16 09:53:17;1203698.00;4.01;2096.91;0.00;0.00;0.62;;;;;12.10;1.00;;;;;;2270307;61;1412;-87
2023/10/16 10:20:07;1409476.00;4.70;2473.91;146528.00;0.49;253.82;;;;;12.30;1.00;;;;;;2269999;61;1658;-87
2023/10/16 10:28:28;2138787.00;7.13;3913.30;286335.00;0.95;494.43;;;;;12.00;1.00;;;;;;2262033;61;1281;-85
2023/10/16 10:33:57;170975.00;0.57;295.95;0.00;0.00;0.62;;;;;11.60;1.00;;;;;;2288226;56;1862;-86
2023/10/16 10:36:44;182138.00;0.61;315.17;0.00;0.00;0.62;;;;;11.70;1.00;;;;;;2268545;61;1624;-88
2023/10/16 10:39:59;205029.00;0.68;354.58;0.00;0.00;0.62;;;;;11.40;1.00;;;;;;2268188;61;1699;-88
2023/10/16 10:42:45;244327.00;0.81;422.19;89664.00;0.30;155.73;;;;;11.60;1.00;;;;;;2272648;61;1566;-86
2023/10/16 10:45:45;160735.00;0.54;278.31;0.00;0.00;0.62;;;;;11.50;1.00;;;;;;2272623;61;1268;-87
2023/10/16 10:48:26;942472.00;3.14;1630.84;148006.00;0.49;256.37;;;;;11.50;1.00;;;;;;2272115;61;1074;-88
2023/10/16 10:54:43;347682.00;1.16;599.88;7655.00;0.03;13.89;;;;;12.00;1.00;;;;;;2271987;61;1189;-85
2023/10/16 10:57:43;282435.00;0.94;487.72;12937.00;0.04;23.04;;;;;12.10;1.00;;;;;;2272596;61;1578;-86
2023/10/16 11:06:02;1742712.00;5.81;3108.72;96780.00;0.32;168.01;;;;;12.50;1.00;;;;;;2270571;61;1700;-85
2023/10/16 11:08:51;1124838.00;3.75;1954.90;161756.00;0.54;280.06;;;;;12.70;1.00;;;;;;2268465;61;1606;-87
2023/10/16 11:14:12;2073024.00;6.91;3775.36;100708.00;0.34;174.79;;;;;12.90;1.00;;;;;;2269402;61;1611;-86
2023/10/16 11:19:28;807055.00;2.69;1393.43;0.00;0.00;0.62;;;;;12.40;1.00;;;;;;2264896;61;1357;-87
2023/10/16 11:22:09;186904.00;0.62;323.38;43271.00;0.14;75.55;;;;;12.10;1.00;;;;;;2264436;61;2005;-86
2023/10/16 11:27:41;97439.00;0.32;169.15;0.00;0.00;0.62;;;;;12.20;1.00;;;;;;2264610;61;1174;-86
2023/10/16 11:36:13;641783.00;2.14;1106.42;120282.00;0.40;208.57;;;;;12.80;1.00;;;;;;2256212;61;1000;-87
2023/10/16 11:39:07;1143754.00;3.81;1988.85;128727.00;0.43;223.13;;;;;12.90;1.00;;;;;;2256125;61;1420;-89
2023/10/16 11:42:09;845617.00;2.82;1460.80;56772.00;0.19;98.90;;;;;13.00;1.00;;;;;;2255989;61;2002;-87
2023/10/16 11:47:42;253009.00;0.84;437.13;18769.00;0.06;33.14;;;;;12.60;1.00;;;;;;2267858;61;1473;-88
2023/10/16 11:56:12;308636.00;1.03;532.76;44179.00;0.15;77.12;;;;;12.40;1.00;;;;;;2272040;61;1339;-85
2023/10/16 11:59:14;136650.00;0.46;236.80;0.00;0.00;0.62;;;;;12.90;1.00;;;;;;2272304;61;1600;-87
2023/10/16 12:01:46;877431.00;2.92;1516.52;73142.00;0.24;127.19;;;;;13.10;1.00;;;;;;2269884;61;2009;-85
2023/10/16 12:04:24;742485.00;2.47;1280.99;19980.00;0.07;35.24;;;;;13.40;1.00;;;;;;2271272;61;1550;-88
2023/10/16 12:07:27;1253278.00;4.18;2186.85;104173.00;0.35;180.77;;;;;13.70;1.00;;;;;;2272369;61;1616;-87
2023/10/16 12:10:20;182143.00;0.61;315.18;0.00;0.00;0.62;;;;;13.20;1.00;;;;;;2272522;61;943;-86
2023/10/16 12:12:58;248860.00;0.83;429.99;0.00;0.00;0.62;;;;;13.30;1.00;;;;;;2271242;61;1480;-87
2023/10/16 12:15:46;435646.00;1.45;751.09;22298.00;0.07;39.25;;;;;13.80;1.00;;;;;;2272492;61;1582;-86
2023/10/16 12:21:43;;;;;;;;;;;;;;;;;;;;;
2023/10/16 12:24:22;1010592.00;3.37;1751.24;164438.00;0.55;284.69;;;;;14.10;1.00;;;;;;2256135;61;1124;-86
2023/10/16 12:30:17;27861.00;0.09;48.88;0.00;0.00;0.62;;;;;14.20;1.00;;;;;;2255797;61;1018;-87
2023/10/16 12:33:21;190933.00;0.64;330.31;20922.00;0.07;36.87;;;;;14.00;1.00;;;;;;2272436;61;1321;-91
2023/10/16 12:36:08;401461.00;1.34;692.32;32708.00;0.11;57.27;;;;;13.80;1.00;;;;;;2268586;61;1650;-88
2023/10/16 12:38:36;291824.00;0.97;503.87;83028.00;0.28;144.27;;;;;13.70;1.00;;;;;;2268374;61;1375;-87
2023/10/16 12:43:44;1127477.00;3.76;1959.63;88745.00;0.30;154.14;;;;;13.90;1.00;;;;;;2273881;61;1247;-86
2023/10/16 12:46:21;374319.00;1.25;645.66;85151.00;0.28;147.93;;;;;13.90;1.00;;;;;;2272302;61;1155;-88
2023/10/16 12:49:08;947572.00;3.16;1639.83;102217.00;0.34;177.40;;;;;13.90;1.00;;;;;;2272320;61;1475;-87
2023/10/16 12:51:40;714286.00;2.38;1232.02;27647.00;0.09;48.51;;;;;14.00;1.00;;;;;;2272249;61;1418;-88
2023/10/16 12:54:19;761656.00;2.54;1314.33;29445.00;0.10;51.62;;;;;13.80;1.00;;;;;;2271970;61;1582;-88
2023/10/16 12:56:57;52558.00;0.18;91.61;0.00;0.00;0.62;;;;;13.60;1.00;;;;;;2296630;55;3723;-88
2023/10/16 13:02:04;1092892.00;3.64;1897.72;0.00;0.00;0.62;;;;;13.40;1.00;;;;;;2266240;61;1975;-88
2023/10/16 13:04:45;37938.00;0.13;66.32;0.00;0.00;0.62;;;;;13.60;1.00;;;;;;2264963;61;1658;-86
2023/10/16 13:07:22;121338.00;0.40;210.39;0.00;0.00;0.62;;;;;13.80;1.00;;;;;;2264766;61;1680;-86
2023/10/16 13:10:00;91556.00;0.31;158.99;0.00;0.00;0.62;;;;;13.70;1.00;;;;;;2264767;61;2241;-87
2023/10/16 13:34:04;2258204.00;7.53;4168.69;67031.00;0.22;116.63;;;;;14.30;1.00;;;;;;2266390;61;1237;-87
2023/10/16 13:36:56;399410.00;1.33;688.79;21867.00;0.07;38.50;;;;;14.40;1.00;;;;;;2264627;61;1539;-88
2023/10/16 13:42:31;212469.00;0.71;367.38;0.00;0.00;0.62;;;;;14.20;1.00;;;;;;2272583;61;2002;-88
2023/10/16 13:45:12;154441.00;0.51;267.46;0.00;0.00;0.62;;;;;14.30;1.00;;;;;;2272679;61;1418;-86
2023/10/16 13:47:46;0.00;0.00;0.62;0.00;0.00;0.62;;;;;14.80;1.00;;;;;;2272880;61;1608;-87
2023/10/16 13:50:34;301772.00;1.01;520.97;1995.00;0.01;4.08;;;;;14.70;1.00;;;;;;2272772;61;1579;-88
2023/10/16 13:53:19;262630.00;0.88;453.67;81420.00;0.27;141.49;;;;;14.20;1.00;;;;;;2272804;61;1613;-86
2023/10/16 13:59:14;314528.00;1.05;542.89;0.00;0.00;0.62;;;;;13.80;1.00;;;;;;2271699;61;1157;-86
2023/10/16 14:01:51;250744.00;0.84;433.23;0.00;0.00;0.62;;;;;13.80;1.00;;;;;;2272319;61;1915;-87
2023/10/16 14:12:17;611644.00;2.04;1054.33;0.00;0.00;0.62;;;;;13.90;1.00;;;;;;2270484;61;1341;-87
2023/10/16 14:14:53;109645.00;0.37;190.22;0.00;0.00;0.62;;;;;13.90;1.00;;;;;;2268821;61;1467;-87
2023/10/16 14:17:31;82634.00;0.28;143.59;0.00;0.00;0.62;;;;;14.00;1.00;;;;;;2268799;61;1017;-85
2023/10/16 14:20:29;147051.00;0.49;254.72;0.00;0.00;0.62;;;;;14.00;1.00;;;;;;2268671;61;1614;-89
2023/10/16 14:23:01;361074.00;1.20;622.89;85974.00;0.29;149.36;;;;;14.00;1.00;;;;;;2268696;61;1930;-87
2023/10/16 14:25:36;392910.00;1.31;677.62;87235.00;0.29;151.53;;;;;13.90;1.00;;;;;;2268841;61;989;-89
2023/10/16 14:30:54;799554.00;2.67;1380.35;109999.00;0.37;190.83;;;;;14.60;1.00;;;;;;2301781;56;1795;-89
2023/10/16 14:33:39;1217216.00;4.06;2121.38;152821.00;0.51;264.67;;;;;14.70;1.00;;;;;;2264383;61;1451;-87
2023/10/16 14:41:35;877285.00;2.92;1516.26;49572.00;0.17;86.45;;;;;14.70;1.00;;;;;;2265900;61;1985;-86
2023/10/16 14:44:07;99948.00;0.33;173.48;0.00;0.00;0.62;;;;;14.00;1.00;;;;;;2264427;61;1202;-86
2023/10/16 14:46:39;276803.00;0.92;478.04;65714.00;0.22;114.35;;;;;13.90;1.00;;;;;;2264617;61;1509;-88
2023/10/16 14:49:08;104144.00;0.35;180.72;0.00;0.00;0.62;;;;;14.00;1.00;;;;;;2264548;61;1591;-88
2023/10/16 14:51:39;135765.00;0.45;235.27;0.00;0.00;0.62;;;;;14.60;1.00;;;;;;2264286;61;1565;-89
2023/10/16 14:54:15;170672.00;0.57;295.42;0.00;0.00;0.62;;;;;15.10;1.00;;;;;;2264542;61;1714;-89
2023/10/16 14:56:49;65062.00;0.22;113.23;0.00;0.00;0.62;;;;;15.00;1.00;;;;;;2264605;61;958;-86
2023/10/16 14:59:29;0.00;0.00;0.62;0.00;0.00;0.62;;;;;14.70;1.00;;;;;;2264707;61;997;-86
2023/10/16 15:01:58;102742.00;0.34;178.30;0.00;0.00;0.62;;;;;14.30;1.00;;;;;;2264455;61;2014;-88
2023/10/16 15:04:28;143055.00;0.48;247.84;0.00;0.00;0.62;;;;;14.00;1.00;;;;;;2264432;61;927;-86
2023/10/16 15:07:01;83769.00;0.28;145.55;0.00;0.00;0.62;;;;;13.90;1.00;;;;;;2264497;61;1400;-87
2023/10/16 15:09:31;117340.00;0.39;203.49;0.00;0.00;0.62;;;;;13.80;1.00;;;;;;2270084;56;3724;-88
2023/10/16 15:11:59;65346.00;0.22;113.72;0.00;0.00;0.62;;;;;13.60;1.00;;;;;;2272683;61;1624;-86
2023/10/16 15:14:32;175434.00;0.58;303.63;0.00;0.00;0.62;;;;;13.90;1.00;;;;;;2272378;61;1686;-87
2023/10/16 15:17:12;187275.00;0.62;324.02;0.00;0.00;0.62;;;;;14.10;1.00;;;;;;2272624;61;1750;-88
2023/10/16 15:19:54;177766.00;0.59;307.64;0.00;0.00;0.62;;;;;14.40;1.00;;;;;;2272668;61;1575;-87
2023/10/16 15:22:25;167963.00;0.56;290.76;0.00;0.00;0.62;;;;;14.50;1.00;;;;;;2278610;41;3720;-88
2023/10/16 15:25:11;332060.00;1.11;573.03;98565.00;0.33;171.09;;;;;14.80;1.00;;;;;;2268101;61;1752;-88
2023/10/16 15:30:15;990843.00;3.30;1716.26;139075.00;0.46;240.98;;;;;15.00;1.00;;;;;;1551074;60;1802;-88
2023/10/16 15:35:26;1758047.00;5.86;3138.77;33303.00;0.11;58.30;;;;;14.20;1.00;;;;;;2270361;61;1349;-88
2023/10/16 15:37:55;927816.00;3.09;1605.03;32050.00;0.11;56.13;;;;;13.60;1.00;;;;;;2268530;61;1658;-88
2023/10/16 15:40:31;913836.00;3.05;1580.43;49378.00;0.16;86.11;;;;;13.70;1.00;;;;;;2268688;61;1113;-88
2023/10/16 15:43:07;872861.00;2.91;1508.50;100141.00;0.33;173.82;;;;;13.80;1.00;;;;;;2264860;61;2013;-86
2023/10/16 15:45:42;420264.00;1.40;724.64;98727.00;0.33;171.37;;;;;13.90;1.00;;;;;;2264218;61;1633;-87
2023/10/16 15:48:16;282201.00;0.94;487.32;0.00;0.00;0.62;;;;;13.70;1.00;;;;;;2263170;61;1639;-87
2023/10/16 15:50:48;346601.00;1.16;598.02;39203.00;0.13;68.51;;;;;13.60;1.00;;;;;;2264489;61;1605;-86
2023/10/16 15:53:21;52727.00;0.18;91.90;0.00;0.00;0.62;;;;;13.40;1.00;;;;;;2264319;61;1547;-87